sensor_id;sensor_type;location;lat;lon;timestamp;P1;durP1;ratioP1;P2;durP2;ratioP2
73264;SDS011;61493;51.008;14.088;2023-06-14T00:02:02;3.88;;;2.38;;
73264;SDS011;61493;51.008;14.088;2023-06-14T00:04:27;3.75;;;2.38;;
73264;SDS011;61493;51.008;14.088;2023-06-14T00:06:52;3.75;;;2.53;;
73264;SDS011;61493;51.008;14.088;2023-06-14T00:09:18;4.60;;;2.60;;
73264;SDS011;61493;51.008;14.088;2023-06-14T00:11:43;5.03;;;2.60;;
73264;SDS011;61493;51.008;14.088;2023-06-14T00:14:08;5.10;;;3.30;;
73264;SDS011;61493;51.008;14.088;2023-06-14T00:16:34;4.60;;;2.58;;
73264;SDS011;61493;51.008;14.088;2023-06-14T00:19:00;4.60;;;2.97;;
73264;SDS011;61493;51.008;14.088;2023-06-14T00:21:25;3.65;;;2.95;;
73264;SDS011;61493;51.008;14.088;2023-06-14T00:23:53;4.65;;;2.58;;
73264;SDS011;61493;51.008;14.088;2023-06-14T00:26:18;4.68;;;2.85;;
73264;SDS011;61493;51.008;14.088;2023-06-14T00:28:43;8.40;;;3.35;;
73264;SDS011;61493;51.008;14.088;2023-06-14T00:31:09;10.50;;;2.98;;
73264;SDS011;61493;51.008;14.088;2023-06-14T00:33:34;3.83;;;2.80;;
73264;SDS011;61493;51.008;14.088;2023-06-14T00:35:59;4.35;;;2.35;;
73264;SDS011;61493;51.008;14.088;2023-06-14T00:38:24;4.60;;;2.86;;
73264;SDS011;61493;51.008;14.088;2023-06-14T00:40:50;4.47;;;3.20;;
73264;SDS011;61493;51.008;14.088;2023-06-14T00:43:15;4.28;;;3.03;;
73264;SDS011;61493;51.008;14.088;2023-06-14T00:45:40;5.92;;;3.22;;
73264;SDS011;61493;51.008;14.088;2023-06-14T00:48:05;6.00;;;3.20;;
73264;SDS011;61493;51.008;14.088;2023-06-14T00:50:32;6.70;;;3.13;;
73264;SDS011;61493;51.008;14.088;2023-06-14T00:52:58;5.63;;;3.60;;
73264;SDS011;61493;51.008;14.088;2023-06-14T00:55:23;6.35;;;3.60;;
73264;SDS011;61493;51.008;14.088;2023-06-14T00:57:48;5.60;;;3.40;;
73264;SDS011;61493;51.008;14.088;2023-06-14T01:00:14;6.07;;;3.35;;
73264;SDS011;61493;51.008;14.088;2023-06-14T01:02:39;5.55;;;3.25;;
73264;SDS011;61493;51.008;14.088;2023-06-14T01:05:04;5.95;;;2.85;;
73264;SDS011;61493;51.008;14.088;2023-06-14T01:12:37;7.03;;;5.00;;
73264;SDS011;61493;51.008;14.088;2023-06-14T01:15:04;5.53;;;4.50;;
73264;SDS011;61493;51.008;14.088;2023-06-14T01:17:29;6.47;;;4.55;;
73264;SDS011;61493;51.008;14.088;2023-06-14T01:19:57;4.70;;;3.30;;
73264;SDS011;61493;51.008;14.088;2023-06-14T01:22:24;5.25;;;3.47;;
73264;SDS011;61493;51.008;14.088;2023-06-14T01:24:49;4.47;;;3.22;;
73264;SDS011;61493;51.008;14.088;2023-06-14T01:27:15;6.75;;;3.63;;
73264;SDS011;61493;51.008;14.088;2023-06-14T01:29:40;6.10;;;3.25;;
73264;SDS011;61493;51.008;14.088;2023-06-14T01:32:10;5.13;;;3.50;;
73264;SDS011;61493;51.008;14.088;2023-06-14T01:34:36;8.65;;;3.80;;
73264;SDS011;61493;51.008;14.088;2023-06-14T01:37:01;5.72;;;3.64;;
73264;SDS011;61493;51.008;14.088;2023-06-14T01:39:27;4.80;;;3.50;;
73264;SDS011;61493;51.008;14.088;2023-06-14T01:41:53;6.22;;;3.78;;
73264;SDS011;61493;51.008;14.088;2023-06-14T01:44:18;7.13;;;3.22;;
73264;SDS011;61493;51.008;14.088;2023-06-14T01:46:44;4.72;;;3.97;;
73264;SDS011;61493;51.008;14.088;2023-06-14T01:49:10;5.47;;;3.67;;
73264;SDS011;61493;51.008;14.088;2023-06-14T01:51:36;5.45;;;3.63;;
73264;SDS011;61493;51.008;14.088;2023-06-14T01:54:01;6.20;;;3.10;;
73264;SDS011;61493;51.008;14.088;2023-06-14T01:56:26;4.25;;;2.78;;
73264;SDS011;61493;51.008;14.088;2023-06-14T01:58:52;4.55;;;2.90;;
73264;SDS011;61493;51.008;14.088;2023-06-14T02:01:17;4.85;;;3.42;;
73264;SDS011;61493;51.008;14.088;2023-06-14T02:03:44;5.63;;;3.03;;
73264;SDS011;61493;51.008;14.088;2023-06-14T02:06:09;4.00;;;2.97;;
73264;SDS011;61493;51.008;14.088;2023-06-14T02:08:35;4.47;;;2.80;;
73264;SDS011;61493;51.008;14.088;2023-06-14T02:11:00;3.80;;;2.64;;
73264;SDS011;61493;51.008;14.088;2023-06-14T02:13:25;6.15;;;3.25;;
73264;SDS011;61493;51.008;14.088;2023-06-14T02:15:50;4.80;;;3.53;;
73264;SDS011;61493;51.008;14.088;2023-06-14T02:18:19;5.07;;;3.50;;
73264;SDS011;61493;51.008;14.088;2023-06-14T02:20:44;5.78;;;3.42;;
73264;SDS011;61493;51.008;14.088;2023-06-14T02:23:10;6.78;;;4.18;;
73264;SDS011;61493;51.008;14.088;2023-06-14T02:25:35;6.05;;;3.90;;
73264;SDS011;61493;51.008;14.088;2023-06-14T02:28:00;5.96;;;4.06;;
73264;SDS011;61493;51.008;14.088;2023-06-14T02:30:25;6.07;;;3.80;;
73264;SDS011;61493;51.008;14.088;2023-06-14T02:32:50;4.50;;;3.15;;
73264;SDS011;61493;51.008;14.088;2023-06-14T02:35:18;6.13;;;3.78;;
73264;SDS011;61493;51.008;14.088;2023-06-14T02:37:43;4.72;;;3.60;;
73264;SDS011;61493;51.008;14.088;2023-06-14T02:40:08;4.63;;;3.30;;
73264;SDS011;61493;51.008;14.088;2023-06-14T02:42:34;4.15;;;2.63;;
73264;SDS011;61493;51.008;14.088;2023-06-14T02:44:59;4.72;;;3.50;;
73264;SDS011;61493;51.008;14.088;2023-06-14T02:47:25;4.90;;;3.13;;
73264;SDS011;61493;51.008;14.088;2023-06-14T02:49:50;4.43;;;3.17;;
73264;SDS011;61493;51.008;14.088;2023-06-14T02:52:15;6.74;;;3.50;;
73264;SDS011;61493;51.008;14.088;2023-06-14T02:54:41;3.88;;;2.67;;
73264;SDS011;61493;51.008;14.088;2023-06-14T02:57:06;4.40;;;3.05;;
73264;SDS011;61493;51.008;14.088;2023-06-14T02:59:35;4.85;;;3.38;;
73264;SDS011;61493;51.008;14.088;2023-06-14T03:02:00;6.10;;;3.40;;
73264;SDS011;61493;51.008;14.088;2023-06-14T03:04:25;5.38;;;3.28;;
73264;SDS011;61493;51.008;14.088;2023-06-14T03:06:52;3.78;;;2.65;;
73264;SDS011;61493;51.008;14.088;2023-06-14T03:09:19;6.45;;;3.80;;
73264;SDS011;61493;51.008;14.088;2023-06-14T03:11:45;5.40;;;3.00;;
73264;SDS011;61493;51.008;14.088;2023-06-14T03:14:10;5.03;;;3.30;;
73264;SDS011;61493;51.008;14.088;2023-06-14T03:16:36;6.10;;;3.50;;
73264;SDS011;61493;51.008;14.088;2023-06-14T03:19:02;4.03;;;3.33;;
73264;SDS011;61493;51.008;14.088;2023-06-14T03:21:27;6.10;;;3.70;;
73264;SDS011;61493;51.008;14.088;2023-06-14T03:23:53;5.80;;;3.85;;
73264;SDS011;61493;51.008;14.088;2023-06-14T03:26:18;5.60;;;3.90;;
73264;SDS011;61493;51.008;14.088;2023-06-14T03:28:44;5.43;;;3.88;;
73264;SDS011;61493;51.008;14.088;2023-06-14T03:31:10;6.40;;;4.32;;
73264;SDS011;61493;51.008;14.088;2023-06-14T03:33:35;5.38;;;3.80;;
73264;SDS011;61493;51.008;14.088;2023-06-14T03:36:02;9.82;;;3.38;;
73264;SDS011;61493;51.008;14.088;2023-06-14T03:38:27;6.45;;;4.82;;
73264;SDS011;61493;51.008;14.088;2023-06-14T03:40:53;5.88;;;3.50;;
73264;SDS011;61493;51.008;14.088;2023-06-14T03:43:18;6.02;;;3.44;;
73264;SDS011;61493;51.008;14.088;2023-06-14T03:45:43;5.80;;;4.10;;
73264;SDS011;61493;51.008;14.088;2023-06-14T03:48:08;6.04;;;3.86;;
73264;SDS011;61493;51.008;14.088;2023-06-14T03:50:34;5.03;;;3.47;;
73264;SDS011;61493;51.008;14.088;2023-06-14T03:53:02;5.25;;;3.88;;
73264;SDS011;61493;51.008;14.088;2023-06-14T03:55:28;5.53;;;4.05;;
73264;SDS011;61493;51.008;14.088;2023-06-14T03:57:56;6.22;;;4.43;;
73264;SDS011;61493;51.008;14.088;2023-06-14T04:00:21;7.14;;;3.94;;
73264;SDS011;61493;51.008;14.088;2023-06-14T04:02:46;7.65;;;4.45;;
73264;SDS011;61493;51.008;14.088;2023-06-14T04:05:11;5.80;;;3.65;;
73264;SDS011;61493;51.008;14.088;2023-06-14T04:07:36;7.74;;;4.66;;
73264;SDS011;61493;51.008;14.088;2023-06-14T04:10:09;5.22;;;3.85;;
73264;SDS011;61493;51.008;14.088;2023-06-14T04:12:34;5.78;;;3.65;;
73264;SDS011;61493;51.008;14.088;2023-06-14T04:15:00;6.85;;;4.15;;
73264;SDS011;61493;51.008;14.088;2023-06-14T04:17:25;6.30;;;4.20;;
73264;SDS011;61493;51.008;14.088;2023-06-14T04:19:51;7.04;;;4.62;;
73264;SDS011;61493;51.008;14.088;2023-06-14T04:22:16;8.77;;;4.22;;
73264;SDS011;61493;51.008;14.088;2023-06-14T04:24:41;5.78;;;4.00;;
73264;SDS011;61493;51.008;14.088;2023-06-14T04:27:07;6.32;;;4.75;;
73264;SDS011;61493;51.008;14.088;2023-06-14T04:29:32;7.05;;;4.28;;
73264;SDS011;61493;51.008;14.088;2023-06-14T04:31:58;6.72;;;4.43;;
73264;SDS011;61493;51.008;14.088;2023-06-14T04:34:25;5.95;;;3.85;;
73264;SDS011;61493;51.008;14.088;2023-06-14T04:36:54;8.88;;;3.72;;
73264;SDS011;61493;51.008;14.088;2023-06-14T04:39:20;4.43;;;3.40;;
73264;SDS011;61493;51.008;14.088;2023-06-14T04:41:46;7.43;;;4.35;;
73264;SDS011;61493;51.008;14.088;2023-06-14T04:44:11;6.90;;;3.50;;
73264;SDS011;61493;51.008;14.088;2023-06-14T04:46:37;4.90;;;3.22;;
73264;SDS011;61493;51.008;14.088;2023-06-14T04:54:27;5.32;;;3.60;;
73264;SDS011;61493;51.008;14.088;2023-06-14T04:56:52;5.60;;;3.75;;
73264;SDS011;61493;51.008;14.088;2023-06-14T04:59:21;4.93;;;3.25;;
73264;SDS011;61493;51.008;14.088;2023-06-14T05:01:48;6.68;;;3.50;;
73264;SDS011;61493;51.008;14.088;2023-06-14T05:04:14;5.35;;;3.83;;
73264;SDS011;61493;51.008;14.088;2023-06-14T05:06:40;5.15;;;3.20;;
73264;SDS011;61493;51.008;14.088;2023-06-14T05:09:05;5.53;;;3.45;;
73264;SDS011;61493;51.008;14.088;2023-06-14T05:11:30;5.90;;;3.95;;
73264;SDS011;61493;51.008;14.088;2023-06-14T05:13:56;5.03;;;2.97;;
73264;SDS011;61493;51.008;14.088;2023-06-14T05:16:23;5.07;;;3.53;;
73264;SDS011;61493;51.008;14.088;2023-06-14T05:18:50;6.85;;;3.50;;
73264;SDS011;61493;51.008;14.088;2023-06-14T05:21:15;4.67;;;3.20;;
73264;SDS011;61493;51.008;14.088;2023-06-14T05:23:43;5.10;;;3.88;;
73264;SDS011;61493;51.008;14.088;2023-06-14T05:26:09;5.32;;;3.40;;
73264;SDS011;61493;51.008;14.088;2023-06-14T05:28:34;6.53;;;4.03;;
73264;SDS011;61493;51.008;14.088;2023-06-14T05:31:00;7.35;;;3.67;;
73264;SDS011;61493;51.008;14.088;2023-06-14T05:33:25;5.38;;;3.60;;
73264;SDS011;61493;51.008;14.088;2023-06-14T05:35:51;6.90;;;3.30;;
73264;SDS011;61493;51.008;14.088;2023-06-14T05:38:16;5.40;;;3.70;;
73264;SDS011;61493;51.008;14.088;2023-06-14T05:40:41;5.13;;;3.35;;
73264;SDS011;61493;51.008;14.088;2023-06-14T05:43:06;6.07;;;3.45;;
73264;SDS011;61493;51.008;14.088;2023-06-14T05:45:31;5.65;;;3.60;;
73264;SDS011;61493;51.008;14.088;2023-06-14T05:47:56;4.00;;;3.20;;
73264;SDS011;61493;51.008;14.088;2023-06-14T05:50:22;5.63;;;3.45;;
73264;SDS011;61493;51.008;14.088;2023-06-14T05:52:47;5.57;;;3.50;;
73264;SDS011;61493;51.008;14.088;2023-06-14T05:55:12;4.87;;;3.50;;
73264;SDS011;61493;51.008;14.088;2023-06-14T05:57:37;5.83;;;3.20;;
73264;SDS011;61493;51.008;14.088;2023-06-14T06:00:02;3.25;;;2.60;;
73264;SDS011;61493;51.008;14.088;2023-06-14T06:02:35;5.43;;;3.63;;
73264;SDS011;61493;51.008;14.088;2023-06-14T06:05:00;4.70;;;3.17;;
73264;SDS011;61493;51.008;14.088;2023-06-14T06:07:26;5.27;;;3.07;;
73264;SDS011;61493;51.008;14.088;2023-06-14T06:09:51;5.90;;;3.00;;
73264;SDS011;61493;51.008;14.088;2023-06-14T06:12:16;4.87;;;3.13;;
73264;SDS011;61493;51.008;14.088;2023-06-14T06:14:41;6.13;;;3.37;;
73264;SDS011;61493;51.008;14.088;2023-06-14T06:17:06;5.10;;;3.42;;
73264;SDS011;61493;51.008;14.088;2023-06-14T06:19:32;4.57;;;3.25;;
73264;SDS011;61493;51.008;14.088;2023-06-14T06:21:57;6.55;;;3.50;;
73264;SDS011;61493;51.008;14.088;2023-06-14T06:24:22;4.73;;;3.57;;
73264;SDS011;61493;51.008;14.088;2023-06-14T06:26:47;6.05;;;3.80;;
73264;SDS011;61493;51.008;14.088;2023-06-14T06:29:13;3.97;;;3.53;;
73264;SDS011;61493;51.008;14.088;2023-06-14T06:31:39;5.00;;;3.13;;
73264;SDS011;61493;51.008;14.088;2023-06-14T06:34:04;4.73;;;3.13;;
73264;SDS011;61493;51.008;14.088;2023-06-14T06:36:29;6.27;;;3.87;;
73264;SDS011;61493;51.008;14.088;2023-06-14T06:38:54;4.90;;;3.10;;
73264;SDS011;61493;51.008;14.088;2023-06-14T06:41:19;3.63;;;2.87;;
73264;SDS011;61493;51.008;14.088;2023-06-14T06:43:45;4.53;;;3.03;;
73264;SDS011;61493;51.008;14.088;2023-06-14T06:46:10;4.10;;;3.00;;
73264;SDS011;61493;51.008;14.088;2023-06-14T06:48:35;5.07;;;2.70;;
73264;SDS011;61493;51.008;14.088;2023-06-14T06:51:00;3.83;;;2.73;;
73264;SDS011;61493;51.008;14.088;2023-06-14T06:53:26;4.55;;;2.90;;
73264;SDS011;61493;51.008;14.088;2023-06-14T06:55:51;5.10;;;2.80;;
73264;SDS011;61493;51.008;14.088;2023-06-14T06:58:16;4.70;;;3.27;;
73264;SDS011;61493;51.008;14.088;2023-06-14T07:00:41;4.45;;;3.30;;
73264;SDS011;61493;51.008;14.088;2023-06-14T07:03:06;5.30;;;2.90;;
73264;SDS011;61493;51.008;14.088;2023-06-14T07:05:31;4.27;;;3.10;;
73264;SDS011;61493;51.008;14.088;2023-06-14T07:07:57;6.40;;;2.95;;
73264;SDS011;61493;51.008;14.088;2023-06-14T07:10:22;4.85;;;3.15;;
73264;SDS011;61493;51.008;14.088;2023-06-14T07:12:49;3.65;;;2.58;;
73264;SDS011;61493;51.008;14.088;2023-06-14T07:15:14;3.97;;;3.10;;
73264;SDS011;61493;51.008;14.088;2023-06-14T07:17:39;4.77;;;2.60;;
73264;SDS011;61493;51.008;14.088;2023-06-14T07:20:05;7.10;;;2.70;;
73264;SDS011;61493;51.008;14.088;2023-06-14T07:22:36;3.25;;;2.30;;
73264;SDS011;61493;51.008;14.088;2023-06-14T07:25:01;3.53;;;2.57;;
73264;SDS011;61493;51.008;14.088;2023-06-14T07:27:27;3.08;;;2.10;;
73264;SDS011;61493;51.008;14.088;2023-06-14T07:29:53;4.00;;;2.73;;
73264;SDS011;61493;51.008;14.088;2023-06-14T07:32:18;4.07;;;2.57;;
73264;SDS011;61493;51.008;14.088;2023-06-14T07:34:43;3.17;;;2.30;;
73264;SDS011;61493;51.008;14.088;2023-06-14T07:37:08;3.20;;;2.03;;
73264;SDS011;61493;51.008;14.088;2023-06-14T07:39:33;3.08;;;2.17;;
73264;SDS011;61493;51.008;14.088;2023-06-14T07:41:59;3.03;;;2.17;;
73264;SDS011;61493;51.008;14.088;2023-06-14T07:44:26;3.10;;;2.40;;
73264;SDS011;61493;51.008;14.088;2023-06-14T07:46:51;4.35;;;2.30;;
73264;SDS011;61493;51.008;14.088;2023-06-14T07:49:16;2.45;;;1.50;;
73264;SDS011;61493;51.008;14.088;2023-06-14T07:51:41;3.50;;;1.80;;
73264;SDS011;61493;51.008;14.088;2023-06-14T07:54:06;2.07;;;1.70;;
73264;SDS011;61493;51.008;14.088;2023-06-14T07:56:33;3.22;;;1.92;;
73264;SDS011;61493;51.008;14.088;2023-06-14T07:58:58;2.80;;;1.70;;
73264;SDS011;61493;51.008;14.088;2023-06-14T08:01:24;3.00;;;1.90;;
73264;SDS011;61493;51.008;14.088;2023-06-14T08:03:50;2.85;;;2.17;;
73264;SDS011;61493;51.008;14.088;2023-06-14T08:06:16;2.53;;;2.00;;
73264;SDS011;61493;51.008;14.088;2023-06-14T08:08:41;2.70;;;2.00;;
73264;SDS011;61493;51.008;14.088;2023-06-14T08:11:06;3.90;;;2.10;;
73264;SDS011;61493;51.008;14.088;2023-06-14T08:13:31;3.10;;;1.90;;
73264;SDS011;61493;51.008;14.088;2023-06-14T08:15:56;2.83;;;2.20;;
73264;SDS011;61493;51.008;14.088;2023-06-14T08:18:23;3.08;;;2.17;;
73264;SDS011;61493;51.008;14.088;2023-06-14T08:20:48;2.67;;;1.60;;
73264;SDS011;61493;51.008;14.088;2023-06-14T08:23:15;4.15;;;2.10;;
73264;SDS011;61493;51.008;14.088;2023-06-14T08:25:44;2.60;;;1.85;;
73264;SDS011;61493;51.008;14.088;2023-06-14T08:28:09;2.87;;;1.80;;
73264;SDS011;61493;51.008;14.088;2023-06-14T08:30:34;2.60;;;2.00;;
73264;SDS011;61493;51.008;14.088;2023-06-14T08:32:59;2.83;;;2.35;;
73264;SDS011;61493;51.008;14.088;2023-06-14T08:35:24;5.13;;;2.40;;
73264;SDS011;61493;51.008;14.088;2023-06-14T08:37:49;4.60;;;2.28;;
73264;SDS011;61493;51.008;14.088;2023-06-14T08:40:21;3.97;;;2.50;;
73264;SDS011;61493;51.008;14.088;2023-06-14T08:42:51;3.38;;;2.10;;
73264;SDS011;61493;51.008;14.088;2023-06-14T08:45:16;4.07;;;2.35;;
73264;SDS011;61493;51.008;14.088;2023-06-14T08:47:41;4.05;;;2.35;;
73264;SDS011;61493;51.008;14.088;2023-06-14T08:50:07;3.50;;;2.00;;
73264;SDS011;61493;51.008;14.088;2023-06-14T08:52:33;3.42;;;2.42;;
73264;SDS011;61493;51.008;14.088;2023-06-14T08:55:05;4.00;;;2.35;;
73264;SDS011;61493;51.008;14.088;2023-06-14T08:57:30;3.40;;;2.10;;
73264;SDS011;61493;51.008;14.088;2023-06-14T08:59:56;2.22;;;1.90;;
73264;SDS011;61493;51.008;14.088;2023-06-14T09:02:24;3.17;;;1.85;;
73264;SDS011;61493;51.008;14.088;2023-06-14T09:04:50;3.60;;;2.10;;
73264;SDS011;61493;51.008;14.088;2023-06-14T09:07:15;2.90;;;1.88;;
73264;SDS011;61493;51.008;14.088;2023-06-14T09:09:41;2.37;;;1.80;;
73264;SDS011;61493;51.008;14.088;2023-06-14T09:12:10;3.50;;;2.38;;
73264;SDS011;61493;51.008;14.088;2023-06-14T09:14:36;2.63;;;1.70;;
73264;SDS011;61493;51.008;14.088;2023-06-14T09:17:03;3.38;;;2.20;;
73264;SDS011;61493;51.008;14.088;2023-06-14T09:19:28;5.73;;;2.33;;
73264;SDS011;61493;51.008;14.088;2023-06-14T09:21:53;3.55;;;2.75;;
73264;SDS011;61493;51.008;14.088;2023-06-14T09:24:20;3.95;;;2.78;;
73264;SDS011;61493;51.008;14.088;2023-06-14T09:26:50;2.67;;;2.15;;
73264;SDS011;61493;51.008;14.088;2023-06-14T09:29:16;2.78;;;2.28;;
73264;SDS011;61493;51.008;14.088;2023-06-14T09:31:41;3.33;;;2.40;;
73264;SDS011;61493;51.008;14.088;2023-06-14T09:34:06;3.03;;;2.27;;
73264;SDS011;61493;51.008;14.088;2023-06-14T09:36:32;3.35;;;2.40;;
73264;SDS011;61493;51.008;14.088;2023-06-14T09:39:01;3.90;;;2.70;;
73264;SDS011;61493;51.008;14.088;2023-06-14T09:41:31;4.60;;;3.05;;
73264;SDS011;61493;51.008;14.088;2023-06-14T09:43:57;5.22;;;3.20;;
73264;SDS011;61493;51.008;14.088;2023-06-14T09:46:25;3.40;;;2.78;;
73264;SDS011;61493;51.008;14.088;2023-06-14T09:48:51;4.78;;;3.00;;
73264;SDS011;61493;51.008;14.088;2023-06-14T09:51:16;3.70;;;2.93;;
73264;SDS011;61493;51.008;14.088;2023-06-14T09:53:42;3.50;;;2.80;;
73264;SDS011;61493;51.008;14.088;2023-06-14T09:56:08;3.72;;;2.50;;
73264;SDS011;61493;51.008;14.088;2023-06-14T09:58:35;6.20;;;2.90;;
73264;SDS011;61493;51.008;14.088;2023-06-14T10:01:01;4.43;;;2.97;;
73264;SDS011;61493;51.008;14.088;2023-06-14T10:03:28;4.28;;;3.05;;
73264;SDS011;61493;51.008;14.088;2023-06-14T10:05:54;3.78;;;2.60;;
73264;SDS011;61493;51.008;14.088;2023-06-14T10:08:23;3.08;;;2.50;;
73264;SDS011;61493;51.008;14.088;2023-06-14T10:10:50;3.67;;;2.70;;
73264;SDS011;61493;51.008;14.088;2023-06-14T10:13:16;3.10;;;2.28;;
73264;SDS011;61493;51.008;14.088;2023-06-14T10:15:44;3.15;;;2.40;;
73264;SDS011;61493;51.008;14.088;2023-06-14T10:18:16;4.40;;;2.50;;
73264;SDS011;61493;51.008;14.088;2023-06-14T10:20:53;2.95;;;2.17;;
73264;SDS011;61493;51.008;14.088;2023-06-14T10:23:21;2.80;;;1.95;;
73264;SDS011;61493;51.008;14.088;2023-06-14T10:25:51;4.60;;;2.50;;
73264;SDS011;61493;51.008;14.088;2023-06-14T10:28:19;4.93;;;2.38;;
73264;SDS011;61493;51.008;14.088;2023-06-14T10:31:06;6.15;;;2.58;;
73264;SDS011;61493;51.008;14.088;2023-06-14T10:33:55;3.28;;;1.98;;
73264;SDS011;61493;51.008;14.088;2023-06-14T10:36:25;4.75;;;2.13;;
73264;SDS011;61493;51.008;14.088;2023-06-14T10:41:29;3.80;;;2.47;;
73264;SDS011;61493;51.008;14.088;2023-06-14T10:46:38;4.90;;;2.00;;
73264;SDS011;61493;51.008;14.088;2023-06-14T10:49:04;3.40;;;2.10;;
73264;SDS011;61493;51.008;14.088;2023-06-14T10:51:30;2.65;;;1.90;;
73264;SDS011;61493;51.008;14.088;2023-06-14T10:54:11;2.80;;;1.77;;
73264;SDS011;61493;51.008;14.088;2023-06-14T10:56:36;2.10;;;1.50;;
73264;SDS011;61493;51.008;14.088;2023-06-14T10:59:01;3.50;;;1.70;;
73264;SDS011;61493;51.008;14.088;2023-06-14T11:01:36;1.65;;;1.48;;
73264;SDS011;61493;51.008;14.088;2023-06-14T11:04:09;3.25;;;1.77;;
73264;SDS011;61493;51.008;14.088;2023-06-14T11:06:41;3.67;;;1.85;;
73264;SDS011;61493;51.008;14.088;2023-06-14T11:11:50;6.10;;;2.25;;
73264;SDS011;61493;51.008;14.088;2023-06-14T11:14:16;2.75;;;1.80;;
73264;SDS011;61493;51.008;14.088;2023-06-14T11:16:42;3.00;;;2.17;;
73264;SDS011;61493;51.008;14.088;2023-06-14T11:19:12;3.10;;;2.10;;
73264;SDS011;61493;51.008;14.088;2023-06-14T11:21:39;4.43;;;1.93;;
73264;SDS011;61493;51.008;14.088;2023-06-14T11:24:09;3.88;;;2.50;;
73264;SDS011;61493;51.008;14.088;2023-06-14T11:26:37;4.90;;;2.60;;
73264;SDS011;61493;51.008;14.088;2023-06-14T11:29:02;3.65;;;2.78;;
73264;SDS011;61493;51.008;14.088;2023-06-14T11:31:27;3.20;;;2.47;;
73264;SDS011;61493;51.008;14.088;2023-06-14T11:33:53;3.70;;;2.50;;
73264;SDS011;61493;51.008;14.088;2023-06-14T11:36:18;5.13;;;2.53;;
73264;SDS011;61493;51.008;14.088;2023-06-14T11:38:46;3.10;;;2.10;;
73264;SDS011;61493;51.008;14.088;2023-06-14T11:41:11;3.10;;;2.00;;
73264;SDS011;61493;51.008;14.088;2023-06-14T11:43:36;3.37;;;2.00;;
73264;SDS011;61493;51.008;14.088;2023-06-14T11:46:02;2.88;;;1.88;;
73264;SDS011;61493;51.008;14.088;2023-06-14T11:48:40;3.50;;;2.20;;
73264;SDS011;61493;51.008;14.088;2023-06-14T11:51:06;2.70;;;1.88;;
73264;SDS011;61493;51.008;14.088;2023-06-14T11:53:31;4.97;;;2.10;;
73264;SDS011;61493;51.008;14.088;2023-06-14T11:55:57;4.20;;;2.13;;
73264;SDS011;61493;51.008;14.088;2023-06-14T11:58:22;3.78;;;2.53;;
73264;SDS011;61493;51.008;14.088;2023-06-14T12:00:50;4.07;;;2.37;;
73264;SDS011;61493;51.008;14.088;2023-06-14T12:03:15;3.92;;;2.40;;
73264;SDS011;61493;51.008;14.088;2023-06-14T12:05:41;5.50;;;2.60;;
73264;SDS011;61493;51.008;14.088;2023-06-14T12:08:06;3.15;;;2.30;;
73264;SDS011;61493;51.008;14.088;2023-06-14T12:10:39;3.45;;;2.30;;
73264;SDS011;61493;51.008;14.088;2023-06-14T12:13:04;5.35;;;2.60;;
73264;SDS011;61493;51.008;14.088;2023-06-14T12:15:31;4.35;;;2.50;;
73264;SDS011;61493;51.008;14.088;2023-06-14T12:17:57;2.83;;;2.15;;
73264;SDS011;61493;51.008;14.088;2023-06-14T12:20:22;3.85;;;2.42;;
73264;SDS011;61493;51.008;14.088;2023-06-14T12:22:52;3.00;;;2.13;;
73264;SDS011;61493;51.008;14.088;2023-06-14T12:27:52;3.38;;;2.30;;
73264;SDS011;61493;51.008;14.088;2023-06-14T12:30:17;3.88;;;2.38;;
73264;SDS011;61493;51.008;14.088;2023-06-14T12:32:42;3.67;;;2.40;;
73264;SDS011;61493;51.008;14.088;2023-06-14T12:35:09;4.30;;;3.10;;
73264;SDS011;61493;51.008;14.088;2023-06-14T12:37:34;3.97;;;2.55;;
73264;SDS011;61493;51.008;14.088;2023-06-14T12:39:59;3.43;;;2.40;;
73264;SDS011;61493;51.008;14.088;2023-06-14T12:42:24;4.15;;;2.47;;
73264;SDS011;61493;51.008;14.088;2023-06-14T12:44:50;3.65;;;2.45;;
73264;SDS011;61493;51.008;14.088;2023-06-14T12:47:15;3.35;;;2.50;;
73264;SDS011;61493;51.008;14.088;2023-06-14T12:49:40;3.92;;;2.90;;
73264;SDS011;61493;51.008;14.088;2023-06-14T12:52:06;3.88;;;2.72;;
73264;SDS011;61493;51.008;14.088;2023-06-14T12:54:31;3.58;;;2.55;;
73264;SDS011;61493;51.008;14.088;2023-06-14T12:56:56;6.87;;;2.67;;
73264;SDS011;61493;51.008;14.088;2023-06-14T12:59:21;5.43;;;3.10;;
73264;SDS011;61493;51.008;14.088;2023-06-14T13:01:47;5.07;;;2.97;;
73264;SDS011;61493;51.008;14.088;2023-06-14T13:04:15;4.32;;;2.58;;
73264;SDS011;61493;51.008;14.088;2023-06-14T13:06:40;4.63;;;2.65;;
73264;SDS011;61493;51.008;14.088;2023-06-14T13:09:05;4.13;;;2.93;;
73264;SDS011;61493;51.008;14.088;2023-06-14T13:11:30;5.25;;;2.92;;
73264;SDS011;61493;51.008;14.088;2023-06-14T13:13:56;5.40;;;3.00;;
73264;SDS011;61493;51.008;14.088;2023-06-14T13:16:21;5.00;;;2.90;;
73264;SDS011;61493;51.008;14.088;2023-06-14T13:18:46;5.30;;;3.03;;
73264;SDS011;61493;51.008;14.088;2023-06-14T13:21:12;4.05;;;2.70;;
73264;SDS011;61493;51.008;14.088;2023-06-14T13:23:37;4.80;;;2.58;;
73264;SDS011;61493;51.008;14.088;2023-06-14T13:26:02;4.43;;;2.60;;
73264;SDS011;61493;51.008;14.088;2023-06-14T13:28:28;3.95;;;3.10;;
73264;SDS011;61493;51.008;14.088;2023-06-14T13:30:53;4.40;;;2.90;;
73264;SDS011;61493;51.008;14.088;2023-06-14T13:33:19;4.60;;;3.30;;
73264;SDS011;61493;51.008;14.088;2023-06-14T13:35:44;4.65;;;3.30;;
73264;SDS011;61493;51.008;14.088;2023-06-14T13:38:09;4.55;;;3.63;;
73264;SDS011;61493;51.008;14.088;2023-06-14T13:40:35;5.47;;;3.78;;
73264;SDS011;61493;51.008;14.088;2023-06-14T13:43:01;4.55;;;3.03;;
73264;SDS011;61493;51.008;14.088;2023-06-14T13:45:26;5.10;;;2.67;;
73264;SDS011;61493;51.008;14.088;2023-06-14T13:47:51;5.10;;;2.73;;
73264;SDS011;61493;51.008;14.088;2023-06-14T13:50:16;6.45;;;3.10;;
73264;SDS011;61493;51.008;14.088;2023-06-14T13:52:42;4.45;;;3.25;;
73264;SDS011;61493;51.008;14.088;2023-06-14T13:55:07;4.70;;;3.00;;
73264;SDS011;61493;51.008;14.088;2023-06-14T13:57:32;5.38;;;3.13;;
73264;SDS011;61493;51.008;14.088;2023-06-14T13:59:57;5.30;;;2.73;;
73264;SDS011;61493;51.008;14.088;2023-06-14T14:02:26;3.85;;;2.58;;
73264;SDS011;61493;51.008;14.088;2023-06-14T14:04:51;5.05;;;2.80;;
73264;SDS011;61493;51.008;14.088;2023-06-14T14:07:18;3.83;;;2.83;;
73264;SDS011;61493;51.008;14.088;2023-06-14T14:09:44;7.50;;;2.72;;
73264;SDS011;61493;51.008;14.088;2023-06-14T14:12:09;4.25;;;2.90;;
73264;SDS011;61493;51.008;14.088;2023-06-14T14:14:35;4.93;;;2.83;;
73264;SDS011;61493;51.008;14.088;2023-06-14T14:17:00;5.05;;;2.65;;
73264;SDS011;61493;51.008;14.088;2023-06-14T14:19:25;4.77;;;2.90;;
73264;SDS011;61493;51.008;14.088;2023-06-14T14:21:50;4.18;;;3.00;;
73264;SDS011;61493;51.008;14.088;2023-06-14T14:24:18;3.03;;;2.30;;
73264;SDS011;61493;51.008;14.088;2023-06-14T14:26:43;4.20;;;2.58;;
73264;SDS011;61493;51.008;14.088;2023-06-14T14:29:08;3.27;;;2.47;;
73264;SDS011;61493;51.008;14.088;2023-06-14T14:31:36;3.97;;;2.80;;
73264;SDS011;61493;51.008;14.088;2023-06-14T14:34:01;4.55;;;2.65;;
73264;SDS011;61493;51.008;14.088;2023-06-14T14:36:26;3.70;;;2.57;;
73264;SDS011;61493;51.008;14.088;2023-06-14T14:38:51;3.73;;;2.80;;
73264;SDS011;61493;51.008;14.088;2023-06-14T14:41:17;6.05;;;3.15;;
73264;SDS011;61493;51.008;14.088;2023-06-14T14:43:42;3.90;;;2.47;;
73264;SDS011;61493;51.008;14.088;2023-06-14T14:46:07;3.63;;;2.75;;
73264;SDS011;61493;51.008;14.088;2023-06-14T14:48:32;4.82;;;2.92;;